Hanover, Canada
Current Conditions -  °F | °C
As of 6:00 PM on Monday 20 Oct 2014 (Local Time) from CYVV Reporting Station
Drizzle Drizzle  
Wind Chill: 50°   Ceiling: 1200
Heat Index: 50°   Visibility: 2mi
Dew Point: 48°   Wind: 5mph
Humidity: 94%   Direction: 240°WSW
Pressure: 29.76"   Gusts: NA
Location:  44.15°N, 81.03°W
Report Text: CYVV 202200Z 24004KT 2SM -DZ BR OVC012 10/09 A2976 RMK FG1ST7SLP083
Loading
Personal Weather Stations






























Interactive Weather Map
Tropical Storm Tracking
New forecast layout! Learn more

10-Day Weather Forecast

Advertisements
Track Severe Weather on mobile